Bethel, PA (19507)

12:18 PM EST on January 27, 2015 (GMT -0500)
APRSWXNET Friedensburg PA US | Change Station
CLOSE
Current Station
Personal Weather Station
Location: Friedensburg, PA
Elevation: 721 ft
Nearby Weather Stations

Elev 721 ft 40.60 °N, 76.24 °W | Updated 48 minutes ago

Overcast
Overcast
26 °F
Feels Like 26 °F
N
3
Wind Variable Wind from WNW
Gusts 8.0 mph

Today
High -- | Low -- °F
--% Chance of Precip.
Yesterday
High -- | Low -- °F
Precip. -- in
7:19 AM 5:16 PM
First Quarter, 56% visible
Pressure 29.84 in
Visibility 10.0 miles
Clouds Few 7000 ft
Mostly Cloudy 9000 ft
Windchill 26 °F
Dew Point 17 °F
Humidity 67%
Rainfall 0.00 in
Snow Depth Not available.
UV 2 out of 12
Pollen .10 out of 12
Air Quality Not available.
Flu Activity Not available.
METAR KMUI 271658Z AUTO 04006KT 10SM FEW070 BKN090 M03/M11 A2981 RMK AO2 SLP104 T10331115

More Conditions Fewer Conditions

Pressure 29.84 in
Visibility 10.0 miles
Clouds Few 7000 ft
Mostly Cloudy 9000 ft
Windchill 26 °F
Dew Point 17 °F
Humidity 67%
Rainfall 0.00 in
Snow Depth Not available.
UV 2 out of 12
Pollen .10 out of 12
Air Quality Not available.
Flu Activity Not available.
METAR KMUI 271658Z AUTO 04006KT 10SM FEW070 BKN090 M03/M11 A2981 RMK AO2 SLP104 T10331115

More Conditions Fewer Conditions

10-Day Weather Forecast

Almanac

Astronomy

Jan. 27, 2015 Rise Set
Actual Time
Civil Twilight
Nautical Twilight
Astronomical Twilight
Moon
Length of Visible Light
Length of Day
Tomorrow will be .
, % of the Moon is Illuminated

Today's Extremes

State Highs State Lows

Community

WunderPhotos

Upload Photos

1,790,728 photos uploaded!

WunderBlogs® & News

Nearby

Air Quality

  Air Quality AQ Index Pollutant
Not available.

Snow Depth

Station Depth Elevation

Earthquake Activity

City Distance Mag. Time & Date
Minimum magnitude displayed is 2.5.

Coastal Water Temperatures

Place Temperature

Nearby Weather Stations